sensor_id;sensor_type;location;lat;lon;timestamp;P1;durP1;ratioP1;P2;durP2;ratioP2
7583;SDS011;3833;41.764;26.204;2022-08-23T00:01:52;7.80;;;6.20;;
7583;SDS011;3833;41.764;26.204;2022-08-23T00:04:21;7.73;;;5.67;;
7583;SDS011;3833;41.764;26.204;2022-08-23T00:06:51;7.40;;;5.63;;
7583;SDS011;3833;41.764;26.204;2022-08-23T00:09:18;7.27;;;6.43;;
7583;SDS011;3833;41.764;26.204;2022-08-23T00:11:47;7.00;;;5.43;;
7583;SDS011;3833;41.764;26.204;2022-08-23T00:14:17;6.43;;;5.83;;
7583;SDS011;3833;41.764;26.204;2022-08-23T00:16:47;7.20;;;6.20;;
7583;SDS011;3833;41.764;26.204;2022-08-23T00:19:16;6.40;;;5.77;;
7583;SDS011;3833;41.764;26.204;2022-08-23T00:21:45;7.87;;;5.63;;
7583;SDS011;3833;41.764;26.204;2022-08-23T00:24:13;9.80;;;6.13;;
7583;SDS011;3833;41.764;26.204;2022-08-23T00:26:47;6.47;;;5.80;;
7583;SDS011;3833;41.764;26.204;2022-08-23T00:29:15;8.47;;;6.50;;
7583;SDS011;3833;41.764;26.204;2022-08-23T00:31:45;7.47;;;6.43;;
7583;SDS011;3833;41.764;26.204;2022-08-23T00:34:12;9.30;;;6.30;;
7583;SDS011;3833;41.764;26.204;2022-08-23T00:36:41;11.27;;;7.10;;
7583;SDS011;3833;41.764;26.204;2022-08-23T00:39:09;6.90;;;6.20;;
7583;SDS011;3833;41.764;26.204;2022-08-23T00:41:36;11.53;;;7.47;;
7583;SDS011;3833;41.764;26.204;2022-08-23T00:44:03;7.57;;;6.20;;
7583;SDS011;3833;41.764;26.204;2022-08-23T00:46:50;8.20;;;7.00;;
7583;SDS011;3833;41.764;26.204;2022-08-23T00:49:42;9.83;;;6.87;;
7583;SDS011;3833;41.764;26.204;2022-08-23T00:52:16;8.60;;;6.93;;
7583;SDS011;3833;41.764;26.204;2022-08-23T00:54:48;10.33;;;7.50;;
7583;SDS011;3833;41.764;26.204;2022-08-23T00:57:18;8.23;;;7.00;;
7583;SDS011;3833;41.764;26.204;2022-08-23T00:59:45;7.73;;;6.60;;
7583;SDS011;3833;41.764;26.204;2022-08-23T01:02:13;10.87;;;7.87;;
7583;SDS011;3833;41.764;26.204;2022-08-23T01:04:42;8.23;;;6.43;;
7583;SDS011;3833;41.764;26.204;2022-08-23T01:07:14;9.80;;;7.70;;
7583;SDS011;3833;41.764;26.204;2022-08-23T01:09:50;10.63;;;8.13;;
7583;SDS011;3833;41.764;26.204;2022-08-23T01:12:20;9.63;;;7.57;;
7583;SDS011;3833;41.764;26.204;2022-08-23T01:14:55;7.47;;;6.77;;
7583;SDS011;3833;41.764;26.204;2022-08-23T01:17:27;9.17;;;8.30;;
7583;SDS011;3833;41.764;26.204;2022-08-23T01:19:59;8.73;;;7.07;;
7583;SDS011;3833;41.764;26.204;2022-08-23T01:22:31;9.47;;;8.47;;
7583;SDS011;3833;41.764;26.204;2022-08-23T01:25:09;11.03;;;7.37;;
7583;SDS011;3833;41.764;26.204;2022-08-23T01:27:38;9.33;;;8.13;;
7583;SDS011;3833;41.764;26.204;2022-08-23T01:30:07;11.30;;;7.10;;
7583;SDS011;3833;41.764;26.204;2022-08-23T01:32:38;11.50;;;8.13;;
7583;SDS011;3833;41.764;26.204;2022-08-23T01:35:08;9.47;;;7.70;;
7583;SDS011;3833;41.764;26.204;2022-08-23T01:37:36;9.40;;;8.50;;
7583;SDS011;3833;41.764;26.204;2022-08-23T01:40:03;9.90;;;8.47;;
7583;SDS011;3833;41.764;26.204;2022-08-23T01:42:32;11.30;;;8.63;;
7583;SDS011;3833;41.764;26.204;2022-08-23T01:44:59;11.93;;;8.90;;
7583;SDS011;3833;41.764;26.204;2022-08-23T01:47:26;8.80;;;7.77;;
7583;SDS011;3833;41.764;26.204;2022-08-23T01:49:53;12.77;;;9.67;;
7583;SDS011;3833;41.764;26.204;2022-08-23T01:52:20;10.13;;;8.13;;
7583;SDS011;3833;41.764;26.204;2022-08-23T01:54:47;10.40;;;9.30;;
7583;SDS011;3833;41.764;26.204;2022-08-23T01:57:14;13.27;;;9.53;;
7583;SDS011;3833;41.764;26.204;2022-08-23T01:59:42;9.93;;;7.97;;
7583;SDS011;3833;41.764;26.204;2022-08-23T02:02:09;10.33;;;9.23;;
7583;SDS011;3833;41.764;26.204;2022-08-23T02:04:36;15.43;;;9.93;;
7583;SDS011;3833;41.764;26.204;2022-08-23T02:07:03;10.93;;;9.80;;
7583;SDS011;3833;41.764;26.204;2022-08-23T02:09:30;10.97;;;9.83;;
7583;SDS011;3833;41.764;26.204;2022-08-23T02:11:57;11.20;;;8.77;;
7583;SDS011;3833;41.764;26.204;2022-08-23T02:14:24;10.10;;;9.10;;
7583;SDS011;3833;41.764;26.204;2022-08-23T02:16:53;10.60;;;9.43;;
7583;SDS011;3833;41.764;26.204;2022-08-23T02:19:22;13.63;;;9.83;;
7583;SDS011;3833;41.764;26.204;2022-08-23T02:21:48;14.77;;;9.57;;
7583;SDS011;3833;41.764;26.204;2022-08-23T02:24:16;13.40;;;10.90;;
7583;SDS011;3833;41.764;26.204;2022-08-23T02:26:47;16.43;;;10.97;;
7583;SDS011;3833;41.764;26.204;2022-08-23T02:29:18;13.03;;;11.70;;
7583;SDS011;3833;41.764;26.204;2022-08-23T02:31:46;14.87;;;11.50;;
7583;SDS011;3833;41.764;26.204;2022-08-23T02:34:15;15.43;;;11.53;;
7583;SDS011;3833;41.764;26.204;2022-08-23T02:36:43;13.50;;;9.87;;
7583;SDS011;3833;41.764;26.204;2022-08-23T02:39:10;11.87;;;9.60;;
7583;SDS011;3833;41.764;26.204;2022-08-23T02:41:39;11.33;;;8.97;;
7583;SDS011;3833;41.764;26.204;2022-08-23T02:44:06;14.77;;;10.87;;
7583;SDS011;3833;41.764;26.204;2022-08-23T02:46:33;16.87;;;12.70;;
7583;SDS011;3833;41.764;26.204;2022-08-23T02:49:00;12.40;;;11.13;;
7583;SDS011;3833;41.764;26.204;2022-08-23T02:51:29;12.90;;;10.73;;
7583;SDS011;3833;41.764;26.204;2022-08-23T02:53:56;15.47;;;11.93;;
7583;SDS011;3833;41.764;26.204;2022-08-23T02:56:23;13.87;;;12.20;;
7583;SDS011;3833;41.764;26.204;2022-08-23T02:58:50;13.37;;;11.70;;
7583;SDS011;3833;41.764;26.204;2022-08-23T03:01:18;16.17;;;12.10;;
7583;SDS011;3833;41.764;26.204;2022-08-23T03:03:46;16.60;;;11.43;;
7583;SDS011;3833;41.764;26.204;2022-08-23T03:06:16;16.77;;;12.70;;
7583;SDS011;3833;41.764;26.204;2022-08-23T03:08:45;14.90;;;13.30;;
7583;SDS011;3833;41.764;26.204;2022-08-23T03:11:13;14.53;;;12.80;;
7583;SDS011;3833;41.764;26.204;2022-08-23T03:13:42;14.30;;;11.93;;
7583;SDS011;3833;41.764;26.204;2022-08-23T03:16:10;18.07;;;13.50;;
7583;SDS011;3833;41.764;26.204;2022-08-23T03:18:37;17.83;;;13.93;;
7583;SDS011;3833;41.764;26.204;2022-08-23T03:21:05;14.00;;;12.57;;
7583;SDS011;3833;41.764;26.204;2022-08-23T03:23:34;14.70;;;12.37;;
7583;SDS011;3833;41.764;26.204;2022-08-23T03:26:03;15.93;;;12.93;;
7583;SDS011;3833;41.764;26.204;2022-08-23T03:28:32;16.37;;;12.33;;
7583;SDS011;3833;41.764;26.204;2022-08-23T03:31:00;13.50;;;11.83;;
7583;SDS011;3833;41.764;26.204;2022-08-23T03:33:27;14.53;;;12.90;;
7583;SDS011;3833;41.764;26.204;2022-08-23T03:35:56;18.33;;;12.87;;
7583;SDS011;3833;41.764;26.204;2022-08-23T03:38:23;16.07;;;12.47;;
7583;SDS011;3833;41.764;26.204;2022-08-23T03:40:50;19.33;;;13.70;;
7583;SDS011;3833;41.764;26.204;2022-08-23T03:43:19;16.63;;;13.07;;
7583;SDS011;3833;41.764;26.204;2022-08-23T03:45:46;17.83;;;12.93;;
7583;SDS011;3833;41.764;26.204;2022-08-23T03:48:13;13.67;;;11.67;;
7583;SDS011;3833;41.764;26.204;2022-08-23T03:50:40;13.30;;;11.83;;
7583;SDS011;3833;41.764;26.204;2022-08-23T03:53:07;15.73;;;12.13;;
7583;SDS011;3833;41.764;26.204;2022-08-23T03:55:34;16.33;;;12.73;;
7583;SDS011;3833;41.764;26.204;2022-08-23T03:58:01;20.80;;;14.70;;
7583;SDS011;3833;41.764;26.204;2022-08-23T04:00:30;16.00;;;14.07;;
7583;SDS011;3833;41.764;26.204;2022-08-23T04:02:57;16.77;;;12.90;;
7583;SDS011;3833;41.764;26.204;2022-08-23T04:05:24;16.63;;;13.27;;
7583;SDS011;3833;41.764;26.204;2022-08-23T04:07:52;14.33;;;12.37;;
7583;SDS011;3833;41.764;26.204;2022-08-23T04:10:19;18.97;;;14.73;;
7583;SDS011;3833;41.764;26.204;2022-08-23T04:12:46;14.00;;;12.60;;
7583;SDS011;3833;41.764;26.204;2022-08-23T04:15:13;15.47;;;13.30;;
7583;SDS011;3833;41.764;26.204;2022-08-23T04:17:42;18.20;;;13.93;;
7583;SDS011;3833;41.764;26.204;2022-08-23T04:20:08;17.37;;;15.57;;
7583;SDS011;3833;41.764;26.204;2022-08-23T04:22:36;16.50;;;14.60;;
7583;SDS011;3833;41.764;26.204;2022-08-23T04:25:03;14.80;;;13.27;;
7583;SDS011;3833;41.764;26.204;2022-08-23T04:27:30;16.10;;;13.33;;
7583;SDS011;3833;41.764;26.204;2022-08-23T04:30:00;20.03;;;15.03;;
7583;SDS011;3833;41.764;26.204;2022-08-23T04:32:26;18.10;;;14.70;;
7583;SDS011;3833;41.764;26.204;2022-08-23T04:34:55;17.67;;;13.63;;
7583;SDS011;3833;41.764;26.204;2022-08-23T04:37:22;15.93;;;13.80;;
7583;SDS011;3833;41.764;26.204;2022-08-23T04:39:52;27.30;;;15.50;;
7583;SDS011;3833;41.764;26.204;2022-08-23T04:42:36;16.43;;;14.47;;
7583;SDS011;3833;41.764;26.204;2022-08-23T04:45:06;18.77;;;15.20;;
7583;SDS011;3833;41.764;26.204;2022-08-23T04:47:33;17.87;;;13.63;;
7583;SDS011;3833;41.764;26.204;2022-08-23T04:50:06;17.13;;;15.37;;
7583;SDS011;3833;41.764;26.204;2022-08-23T04:52:33;19.13;;;15.83;;
7583;SDS011;3833;41.764;26.204;2022-08-23T04:55:00;17.47;;;14.60;;
7583;SDS011;3833;41.764;26.204;2022-08-23T04:57:29;17.03;;;12.67;;
7583;SDS011;3833;41.764;26.204;2022-08-23T04:59:56;18.33;;;16.37;;
7583;SDS011;3833;41.764;26.204;2022-08-23T05:02:23;16.40;;;12.77;;
7583;SDS011;3833;41.764;26.204;2022-08-23T05:04:52;19.63;;;16.60;;
7583;SDS011;3833;41.764;26.204;2022-08-23T05:07:20;18.77;;;16.07;;
7583;SDS011;3833;41.764;26.204;2022-08-23T05:09:47;22.17;;;17.50;;
7583;SDS011;3833;41.764;26.204;2022-08-23T05:12:14;22.87;;;16.43;;
7583;SDS011;3833;41.764;26.204;2022-08-23T05:14:41;21.30;;;16.97;;
7583;SDS011;3833;41.764;26.204;2022-08-23T05:17:08;23.63;;;17.20;;
7583;SDS011;3833;41.764;26.204;2022-08-23T05:19:35;24.73;;;16.87;;
7583;SDS011;3833;41.764;26.204;2022-08-23T05:22:01;19.57;;;16.50;;
7583;SDS011;3833;41.764;26.204;2022-08-23T05:27:22;21.70;;;18.23;;
7583;SDS011;3833;41.764;26.204;2022-08-23T05:29:48;22.10;;;18.27;;
7583;SDS011;3833;41.764;26.204;2022-08-23T05:32:18;26.17;;;18.40;;
7583;SDS011;3833;41.764;26.204;2022-08-23T05:34:45;22.90;;;18.80;;
7583;SDS011;3833;41.764;26.204;2022-08-23T05:37:12;23.33;;;18.67;;
7583;SDS011;3833;41.764;26.204;2022-08-23T05:39:39;24.73;;;19.10;;
7583;SDS011;3833;41.764;26.204;2022-08-23T05:42:09;22.60;;;17.47;;
7583;SDS011;3833;41.764;26.204;2022-08-23T05:44:38;26.50;;;19.20;;
7583;SDS011;3833;41.764;26.204;2022-08-23T05:47:05;24.90;;;18.73;;
7583;SDS011;3833;41.764;26.204;2022-08-23T05:49:34;30.73;;;20.53;;
7583;SDS011;3833;41.764;26.204;2022-08-23T05:52:02;26.50;;;19.70;;
7583;SDS011;3833;41.764;26.204;2022-08-23T05:54:29;23.97;;;20.70;;
7583;SDS011;3833;41.764;26.204;2022-08-23T05:56:56;24.73;;;18.17;;
7583;SDS011;3833;41.764;26.204;2022-08-23T05:59:24;24.27;;;18.70;;
7583;SDS011;3833;41.764;26.204;2022-08-23T06:01:51;24.00;;;16.63;;
7583;SDS011;3833;41.764;26.204;2022-08-23T06:04:18;23.60;;;19.60;;
7583;SDS011;3833;41.764;26.204;2022-08-23T06:06:45;26.53;;;18.23;;
7583;SDS011;3833;41.764;26.204;2022-08-23T06:09:13;23.57;;;19.40;;
7583;SDS011;3833;41.764;26.204;2022-08-23T06:11:42;25.60;;;20.10;;
7583;SDS011;3833;41.764;26.204;2022-08-23T06:14:11;23.37;;;18.97;;
7583;SDS011;3833;41.764;26.204;2022-08-23T06:16:40;25.13;;;19.00;;
7583;SDS011;3833;41.764;26.204;2022-08-23T06:19:09;25.57;;;18.83;;
7583;SDS011;3833;41.764;26.204;2022-08-23T06:21:36;21.53;;;19.00;;
7583;SDS011;3833;41.764;26.204;2022-08-23T06:24:04;23.37;;;19.10;;
7583;SDS011;3833;41.764;26.204;2022-08-23T06:26:32;22.70;;;18.40;;
7583;SDS011;3833;41.764;26.204;2022-08-23T06:29:04;34.00;;;20.00;;
7583;SDS011;3833;41.764;26.204;2022-08-23T06:31:32;23.67;;;20.10;;
7583;SDS011;3833;41.764;26.204;2022-08-23T06:34:14;25.63;;;19.57;;
7583;SDS011;3833;41.764;26.204;2022-08-23T06:36:44;28.10;;;18.87;;
7583;SDS011;3833;41.764;26.204;2022-08-23T06:39:12;29.03;;;18.47;;
7583;SDS011;3833;41.764;26.204;2022-08-23T06:41:40;24.23;;;19.50;;
7583;SDS011;3833;41.764;26.204;2022-08-23T06:44:07;25.03;;;19.20;;
7583;SDS011;3833;41.764;26.204;2022-08-23T06:46:34;24.80;;;19.27;;
7583;SDS011;3833;41.764;26.204;2022-08-23T06:49:02;25.43;;;19.60;;
7583;SDS011;3833;41.764;26.204;2022-08-23T06:51:34;23.80;;;19.77;;
7583;SDS011;3833;41.764;26.204;2022-08-23T06:54:03;24.57;;;19.33;;
7583;SDS011;3833;41.764;26.204;2022-08-23T06:56:32;20.83;;;17.50;;
7583;SDS011;3833;41.764;26.204;2022-08-23T06:58:59;20.47;;;16.87;;
7583;SDS011;3833;41.764;26.204;2022-08-23T07:01:31;25.37;;;17.10;;
7583;SDS011;3833;41.764;26.204;2022-08-23T07:03:59;21.80;;;17.23;;
7583;SDS011;3833;41.764;26.204;2022-08-23T07:06:28;21.23;;;16.40;;
7583;SDS011;3833;41.764;26.204;2022-08-23T07:08:57;22.87;;;16.80;;
7583;SDS011;3833;41.764;26.204;2022-08-23T07:11:25;19.20;;;15.97;;
7583;SDS011;3833;41.764;26.204;2022-08-23T07:13:55;17.97;;;16.03;;
7583;SDS011;3833;41.764;26.204;2022-08-23T07:16:23;18.03;;;15.20;;
7583;SDS011;3833;41.764;26.204;2022-08-23T07:18:50;17.00;;;14.43;;
7583;SDS011;3833;41.764;26.204;2022-08-23T07:21:19;17.00;;;13.40;;
7583;SDS011;3833;41.764;26.204;2022-08-23T07:23:46;18.00;;;13.43;;
7583;SDS011;3833;41.764;26.204;2022-08-23T07:26:15;16.23;;;14.43;;
7583;SDS011;3833;41.764;26.204;2022-08-23T07:28:43;15.63;;;13.93;;
7583;SDS011;3833;41.764;26.204;2022-08-23T07:31:11;18.70;;;15.07;;
7583;SDS011;3833;41.764;26.204;2022-08-23T07:33:40;22.67;;;14.70;;
7583;SDS011;3833;41.764;26.204;2022-08-23T07:36:07;16.57;;;12.63;;
7583;SDS011;3833;41.764;26.204;2022-08-23T07:38:35;17.50;;;12.30;;
7583;SDS011;3833;41.764;26.204;2022-08-23T07:41:05;21.40;;;12.53;;
7583;SDS011;3833;41.764;26.204;2022-08-23T07:43:33;17.47;;;11.97;;
7583;SDS011;3833;41.764;26.204;2022-08-23T07:46:00;12.97;;;10.47;;
7583;SDS011;3833;41.764;26.204;2022-08-23T07:48:28;17.40;;;10.50;;
7583;SDS011;3833;41.764;26.204;2022-08-23T07:50:56;11.07;;;9.43;;
7583;SDS011;3833;41.764;26.204;2022-08-23T07:53:25;16.40;;;10.03;;
7583;SDS011;3833;41.764;26.204;2022-08-23T07:55:53;13.27;;;9.77;;
7583;SDS011;3833;41.764;26.204;2022-08-23T07:58:21;10.83;;;8.90;;
7583;SDS011;3833;41.764;26.204;2022-08-23T08:00:51;26.13;;;10.37;;
7583;SDS011;3833;41.764;26.204;2022-08-23T08:03:18;9.43;;;8.43;;
7583;SDS011;3833;41.764;26.204;2022-08-23T08:05:45;9.33;;;8.50;;
7583;SDS011;3833;41.764;26.204;2022-08-23T08:08:12;16.77;;;9.87;;
7583;SDS011;3833;41.764;26.204;2022-08-23T08:10:39;14.60;;;9.10;;
7583;SDS011;3833;41.764;26.204;2022-08-23T08:13:08;12.23;;;9.30;;
7583;SDS011;3833;41.764;26.204;2022-08-23T08:15:38;10.87;;;8.10;;
7583;SDS011;3833;41.764;26.204;2022-08-23T08:18:08;9.83;;;8.30;;
7583;SDS011;3833;41.764;26.204;2022-08-23T08:20:36;11.30;;;7.80;;
7583;SDS011;3833;41.764;26.204;2022-08-23T08:23:02;16.83;;;8.93;;
7583;SDS011;3833;41.764;26.204;2022-08-23T08:25:36;10.40;;;9.33;;
7583;SDS011;3833;41.764;26.204;2022-08-23T08:28:03;14.00;;;8.80;;
7583;SDS011;3833;41.764;26.204;2022-08-23T08:30:33;16.73;;;9.57;;
7583;SDS011;3833;41.764;26.204;2022-08-23T08:33:02;11.10;;;9.07;;
7583;SDS011;3833;41.764;26.204;2022-08-23T08:35:30;13.70;;;10.10;;
7583;SDS011;3833;41.764;26.204;2022-08-23T08:37:57;11.27;;;9.83;;
7583;SDS011;3833;41.764;26.204;2022-08-23T08:40:26;11.17;;;9.20;;
7583;SDS011;3833;41.764;26.204;2022-08-23T08:43:06;9.87;;;8.90;;
7583;SDS011;3833;41.764;26.204;2022-08-23T08:45:52;11.10;;;8.57;;
7583;SDS011;3833;41.764;26.204;2022-08-23T08:48:28;9.20;;;8.27;;
7583;SDS011;3833;41.764;26.204;2022-08-23T08:51:06;8.93;;;8.03;;
7583;SDS011;3833;41.764;26.204;2022-08-23T08:53:46;11.07;;;8.47;;
7583;SDS011;3833;41.764;26.204;2022-08-23T08:56:17;9.07;;;8.00;;
7583;SDS011;3833;41.764;26.204;2022-08-23T08:58:47;13.90;;;9.53;;
7583;SDS011;3833;41.764;26.204;2022-08-23T09:01:16;11.23;;;8.70;;
7583;SDS011;3833;41.764;26.204;2022-08-23T09:03:43;13.27;;;8.30;;
7583;SDS011;3833;41.764;26.204;2022-08-23T09:06:13;9.37;;;8.13;;
7583;SDS011;3833;41.764;26.204;2022-08-23T09:08:49;9.53;;;8.27;;
7583;SDS011;3833;41.764;26.204;2022-08-23T09:11:26;13.97;;;8.10;;
7583;SDS011;3833;41.764;26.204;2022-08-23T09:14:09;12.27;;;8.90;;
7583;SDS011;3833;41.764;26.204;2022-08-23T09:16:59;10.43;;;7.70;;
7583;SDS011;3833;41.764;26.204;2022-08-23T09:19:30;10.30;;;7.97;;
7583;SDS011;3833;41.764;26.204;2022-08-23T09:22:01;10.23;;;7.70;;
7583;SDS011;3833;41.764;26.204;2022-08-23T09:24:34;11.77;;;7.63;;
7583;SDS011;3833;41.764;26.204;2022-08-23T09:27:02;9.70;;;6.90;;
7583;SDS011;3833;41.764;26.204;2022-08-23T09:29:31;8.10;;;7.30;;
7583;SDS011;3833;41.764;26.204;2022-08-23T09:31:59;10.37;;;7.53;;
7583;SDS011;3833;41.764;26.204;2022-08-23T09:34:36;12.20;;;7.27;;
7583;SDS011;3833;41.764;26.204;2022-08-23T09:37:09;11.57;;;7.53;;
7583;SDS011;3833;41.764;26.204;2022-08-23T09:39:40;10.07;;;6.70;;
7583;SDS011;3833;41.764;26.204;2022-08-23T09:42:24;7.77;;;6.97;;
7583;SDS011;3833;41.764;26.204;2022-08-23T09:44:53;12.30;;;7.37;;
7583;SDS011;3833;41.764;26.204;2022-08-23T09:47:27;13.33;;;6.97;;
7583;SDS011;3833;41.764;26.204;2022-08-23T09:49:58;9.40;;;6.33;;
7583;SDS011;3833;41.764;26.204;2022-08-23T09:52:35;8.23;;;6.53;;
7583;SDS011;3833;41.764;26.204;2022-08-23T09:55:05;8.13;;;6.83;;
7583;SDS011;3833;41.764;26.204;2022-08-23T09:57:35;7.83;;;7.03;;
7583;SDS011;3833;41.764;26.204;2022-08-23T10:00:17;7.40;;;6.63;;
7583;SDS011;3833;41.764;26.204;2022-08-23T10:02:49;8.80;;;6.80;;
7583;SDS011;3833;41.764;26.204;2022-08-23T10:05:27;11.00;;;6.67;;
7583;SDS011;3833;41.764;26.204;2022-08-23T10:07:58;13.37;;;7.60;;
7583;SDS011;3833;41.764;26.204;2022-08-23T10:10:29;10.20;;;7.13;;
7583;SDS011;3833;41.764;26.204;2022-08-23T10:13:00;10.50;;;7.30;;
7583;SDS011;3833;41.764;26.204;2022-08-23T10:15:41;9.33;;;6.97;;
7583;SDS011;3833;41.764;26.204;2022-08-23T10:18:19;7.87;;;7.00;;
7583;SDS011;3833;41.764;26.204;2022-08-23T10:20:58;7.43;;;6.57;;
7583;SDS011;3833;41.764;26.204;2022-08-23T10:23:34;10.57;;;7.40;;
7583;SDS011;3833;41.764;26.204;2022-08-23T10:26:10;14.27;;;7.70;;
7583;SDS011;3833;41.764;26.204;2022-08-23T10:28:47;12.03;;;7.40;;
7583;SDS011;3833;41.764;26.204;2022-08-23T10:31:40;14.27;;;8.20;;
7583;SDS011;3833;41.764;26.204;2022-08-23T10:34:17;8.40;;;6.70;;
7583;SDS011;3833;41.764;26.204;2022-08-23T10:36:55;11.63;;;6.70;;
7583;SDS011;3833;41.764;26.204;2022-08-23T10:39:33;7.17;;;6.47;;
7583;SDS011;3833;41.764;26.204;2022-08-23T10:42:13;12.33;;;6.60;;
7583;SDS011;3833;41.764;26.204;2022-08-23T10:44:49;16.10;;;7.03;;
7583;SDS011;3833;41.764;26.204;2022-08-23T10:47:28;11.93;;;6.73;;
7583;SDS011;3833;41.764;26.204;2022-08-23T10:50:09;10.07;;;6.50;;
7583;SDS011;3833;41.764;26.204;2022-08-23T10:52:39;6.37;;;5.73;;
7583;SDS011;3833;41.764;26.204;2022-08-23T10:55:17;15.77;;;8.27;;
7583;SDS011;3833;41.764;26.204;2022-08-23T10:58:00;7.33;;;6.57;;
7583;SDS011;3833;41.764;26.204;2022-08-23T11:00:29;12.23;;;6.90;;
7583;SDS011;3833;41.764;26.204;2022-08-23T11:02:58;7.73;;;6.20;;
7583;SDS011;3833;41.764;26.204;2022-08-23T11:05:41;9.80;;;6.27;;
7583;SDS011;3833;41.764;26.204;2022-08-23T11:08:08;12.23;;;6.57;;
7583;SDS011;3833;41.764;26.204;2022-08-23T11:10:45;9.67;;;6.90;;
7583;SDS011;3833;41.764;26.204;2022-08-23T11:13:20;7.60;;;6.53;;
7583;SDS011;3833;41.764;26.204;2022-08-23T11:15:54;13.00;;;7.47;;
7583;SDS011;3833;41.764;26.204;2022-08-23T11:18:37;7.73;;;6.53;;
7583;SDS011;3833;41.764;26.204;2022-08-23T11:21:08;9.87;;;6.57;;
7583;SDS011;3833;41.764;26.204;2022-08-23T11:27:17;9.67;;;6.60;;
7583;SDS011;3833;41.764;26.204;2022-08-23T11:29:54;9.23;;;6.30;;
7583;SDS011;3833;41.764;26.204;2022-08-23T11:32:39;10.37;;;7.00;;
7583;SDS011;3833;41.764;26.204;2022-08-23T11:35:21;8.97;;;7.23;;
7583;SDS011;3833;41.764;26.204;2022-08-23T11:38:00;9.83;;;6.77;;
7583;SDS011;3833;41.764;26.204;2022-08-23T11:40:35;7.17;;;6.47;;
7583;SDS011;3833;41.764;26.204;2022-08-23T11:43:32;8.90;;;6.90;;
7583;SDS011;3833;41.764;26.204;2022-08-23T11:49:03;9.93;;;5.90;;
7583;SDS011;3833;41.764;26.204;2022-08-23T11:51:58;9.47;;;6.00;;
7583;SDS011;3833;41.764;26.204;2022-08-23T11:54:36;11.87;;;6.30;;
7583;SDS011;3833;41.764;26.204;2022-08-23T11:57:17;10.77;;;6.93;;
7583;SDS011;3833;41.764;26.204;2022-08-23T12:02:50;10.73;;;7.27;;
7583;SDS011;3833;41.764;26.204;2022-08-23T12:05:27;10.23;;;6.47;;
7583;SDS011;3833;41.764;26.204;2022-08-23T12:08:27;12.60;;;7.13;;
7583;SDS011;3833;41.764;26.204;2022-08-23T12:11:12;8.93;;;6.23;;
7583;SDS011;3833;41.764;26.204;2022-08-23T12:13:50;10.00;;;6.60;;
7583;SDS011;3833;41.764;26.204;2022-08-23T12:16:34;9.10;;;6.40;;
7583;SDS011;3833;41.764;26.204;2022-08-23T12:19:05;15.27;;;7.13;;
7583;SDS011;3833;41.764;26.204;2022-08-23T12:21:40;8.30;;;6.63;;
7583;SDS011;3833;41.764;26.204;2022-08-23T12:24:14;7.37;;;6.43;;
7583;SDS011;3833;41.764;26.204;2022-08-23T12:27:02;11.37;;;7.33;;
7583;SDS011;3833;41.764;26.204;2022-08-23T12:29:50;8.03;;;7.23;;
7583;SDS011;3833;41.764;26.204;2022-08-23T12:32:26;12.27;;;6.83;;
7583;SDS011;3833;41.764;26.204;2022-08-23T12:35:02;11.90;;;7.53;;
7583;SDS011;3833;41.764;26.204;2022-08-23T12:37:45;8.27;;;6.70;;
7583;SDS011;3833;41.764;26.204;2022-08-23T12:40:28;13.13;;;7.07;;
7583;SDS011;3833;41.764;26.204;2022-08-23T12:43:05;7.03;;;6.27;;
7583;SDS011;3833;41.764;26.204;2022-08-23T12:45:36;10.13;;;6.70;;
7583;SDS011;3833;41.764;26.204;2022-08-23T12:48:07;8.83;;;7.00;;
7583;SDS011;3833;41.764;26.204;2022-08-23T12:50:36;9.13;;;7.33;;
7583;SDS011;3833;41.764;26.204;2022-08-23T12:53:06;7.73;;;6.47;;
7583;SDS011;3833;41.764;26.204;2022-08-23T12:55:35;9.93;;;5.97;;
7583;SDS011;3833;41.764;26.204;2022-08-23T12:58:05;8.83;;;6.60;;
7583;SDS011;3833;41.764;26.204;2022-08-23T13:00:34;10.53;;;6.47;;
7583;SDS011;3833;41.764;26.204;2022-08-23T13:03:04;9.77;;;6.60;;
7583;SDS011;3833;41.764;26.204;2022-08-23T13:05:39;11.70;;;7.50;;
7583;SDS011;3833;41.764;26.204;2022-08-23T13:08:09;9.27;;;6.33;;
7583;SDS011;3833;41.764;26.204;2022-08-23T13:10:39;6.27;;;5.57;;
7583;SDS011;3833;41.764;26.204;2022-08-23T13:13:09;14.50;;;6.83;;
7583;SDS011;3833;41.764;26.204;2022-08-23T13:15:39;9.50;;;6.50;;
7583;SDS011;3833;41.764;26.204;2022-08-23T13:18:09;7.53;;;6.73;;
7583;SDS011;3833;41.764;26.204;2022-08-23T13:20:36;12.83;;;6.33;;
7583;SDS011;3833;41.764;26.204;2022-08-23T13:23:04;8.57;;;7.50;;
7583;SDS011;3833;41.764;26.204;2022-08-23T13:25:34;9.60;;;7.13;;
7583;SDS011;3833;41.764;26.204;2022-08-23T13:28:03;7.37;;;6.53;;
7583;SDS011;3833;41.764;26.204;2022-08-23T13:30:32;8.80;;;7.33;;
7583;SDS011;3833;41.764;26.204;2022-08-23T13:33:18;10.77;;;7.33;;
7583;SDS011;3833;41.764;26.204;2022-08-23T13:35:48;9.57;;;7.90;;
7583;SDS011;3833;41.764;26.204;2022-08-23T13:38:23;12.10;;;7.37;;
7583;SDS011;3833;41.764;26.204;2022-08-23T13:40:56;7.43;;;6.70;;
7583;SDS011;3833;41.764;26.204;2022-08-23T13:43:27;8.50;;;6.50;;
7583;SDS011;3833;41.764;26.204;2022-08-23T13:45:59;12.67;;;7.30;;
7583;SDS011;3833;41.764;26.204;2022-08-23T13:48:42;8.20;;;7.37;;
7583;SDS011;3833;41.764;26.204;2022-08-23T13:51:16;9.33;;;7.57;;
7583;SDS011;3833;41.764;26.204;2022-08-23T13:53:50;15.53;;;7.27;;
7583;SDS011;3833;41.764;26.204;2022-08-23T13:56:17;9.07;;;7.90;;
7583;SDS011;3833;41.764;26.204;2022-08-23T13:58:50;9.20;;;7.03;;
7583;SDS011;3833;41.764;26.204;2022-08-23T14:01:19;24.23;;;8.47;;
7583;SDS011;3833;41.764;26.204;2022-08-23T14:03:48;12.83;;;9.10;;
7583;SDS011;3833;41.764;26.204;2022-08-23T14:06:15;9.10;;;8.10;;
7583;SDS011;3833;41.764;26.204;2022-08-23T14:08:42;10.40;;;7.67;;
7583;SDS011;3833;41.764;26.204;2022-08-23T14:11:09;9.10;;;7.10;;
7583;SDS011;3833;41.764;26.204;2022-08-23T14:13:38;8.07;;;7.27;;
7583;SDS011;3833;41.764;26.204;2022-08-23T14:16:06;8.03;;;7.17;;
7583;SDS011;3833;41.764;26.204;2022-08-23T14:18:34;7.70;;;6.83;;
7583;SDS011;3833;41.764;26.204;2022-08-23T14:21:02;12.37;;;7.57;;
7583;SDS011;3833;41.764;26.204;2022-08-23T14:23:29;10.50;;;7.37;;
7583;SDS011;3833;41.764;26.204;2022-08-23T14:25:57;8.33;;;7.03;;
7583;SDS011;3833;41.764;26.204;2022-08-23T14:28:26;9.13;;;7.33;;
7583;SDS011;3833;41.764;26.204;2022-08-23T14:30:55;10.40;;;7.20;;
7583;SDS011;3833;41.764;26.204;2022-08-23T14:33:23;10.13;;;7.67;;
7583;SDS011;3833;41.764;26.204;2022-08-23T14:35:50;13.20;;;7.10;;
7583;SDS011;3833;41.764;26.204;2022-08-23T14:38:19;19.50;;;8.07;;
7583;SDS011;3833;41.764;26.204;2022-08-23T14:40:48;12.00;;;7.80;;
7583;SDS011;3833;41.764;26.204;2022-08-23T14:43:17;8.73;;;7.17;;
7583;SDS011;3833;41.764;26.204;2022-08-23T14:45:45;11.73;;;7.27;;
7583;SDS011;3833;41.764;26.204;2022-08-23T14:48:12;10.00;;;6.97;;
7583;SDS011;3833;41.764;26.204;2022-08-23T14:50:43;7.97;;;6.67;;
7583;SDS011;3833;41.764;26.204;2022-08-23T14:53:14;9.33;;;7.27;;
7583;SDS011;3833;41.764;26.204;2022-08-23T14:55:43;11.07;;;7.70;;
7583;SDS011;3833;41.764;26.204;2022-08-23T14:58:10;10.63;;;8.10;;
7583;SDS011;3833;41.764;26.204;2022-08-23T15:00:41;8.63;;;7.43;;
7583;SDS011;3833;41.764;26.204;2022-08-23T15:03:13;9.37;;;7.67;;
7583;SDS011;3833;41.764;26.204;2022-08-23T15:05:43;10.80;;;7.27;;
7583;SDS011;3833;41.764;26.204;2022-08-23T15:08:12;13.57;;;7.60;;
7583;SDS011;3833;41.764;26.204;2022-08-23T15:10:39;9.57;;;7.00;;
7583;SDS011;3833;41.764;26.204;2022-08-23T15:13:07;11.43;;;7.43;;
7583;SDS011;3833;41.764;26.204;2022-08-23T15:15:34;9.43;;;7.30;;
7583;SDS011;3833;41.764;26.204;2022-08-23T15:18:02;16.63;;;8.23;;
7583;SDS011;3833;41.764;26.204;2022-08-23T15:20:34;10.23;;;7.80;;
7583;SDS011;3833;41.764;26.204;2022-08-23T15:23:03;11.93;;;8.37;;